MacClenny, Florida
Current Conditions -  °F | °C
As of 7:50 PM on Saturday 22 Nov 2014 (Local Time) from KVQQ Reporting Station
Haze Haze  
Wind Chill: 64°   Ceiling: 2900
Heat Index: 64°   Visibility: 5mi
Dew Point: 63°   Wind: 7mph
Humidity: 94%   Direction: 90°E
Pressure: 30.18"   Gusts: NA
Location:  30.28°N, 82.12°W
Report Text: KVQQ 230050Z 09006KT 5SM BR BKN029 OVC046 18/17 A3018
Loading
Personal Weather Stations






























Interactive Weather Map New forecast layout! Learn more

10-Day Weather Forecast

Advertisements
Track Severe Weather on mobile